»·PEaware :: PSV130 KSBA-KJAC

PSV130 :: KSBA-KJAC

FLIGHT INFORMATION

Flight Status: Arrived
Operator:
Power Set Virtual (website)
More flights by this operator :: More flights under this callsign
Pilot: Anonymous 24489 (24489)
Aircraft: AIRBUS A320
(A320)
More flights by this aircraft type
Origin: KSBA Santa Barbara Mun
United States
Destination: KJAC Jackson Hole
United States
More flights between these airports :: More routes between these airports
Route: +MISHN3 NNAVY LAS Q70 BLIPP Q842 WINEN MLF J9 FFU FBR BPI JAC
File this flight plan on PilotEdge
Remarks: RMK / SIMBRIEF
Altitude:
(Current/Filed)
37,000ft
Speed:
(Current/Filed)
443kts
Departed: 25-Nov-20 06:33 PM
Arrived: 25-Nov-20 08:24 PM
Distance/Time
Traveled:
694nm/1:50
Distance/Time
To Go:
Arrived

Flight Plot

Page will automatically refresh every two minutes.

Flight plan parsing failed; only flown route is shown


Map Options




Map Legend


Flown Route
Filed Route
Departure Airport
Arrival Airport
Navaid (VOR, NDB)
Fix

Horizontal Profiles

Position Reports

Time Latitude Longitude Heading Altitude Ground
Speed
25-Nov-20 18:12 34.426094 -119.837070 178 24ft 0kts
25-Nov-20 18:13 34.426094 -119.837070 178 24ft 0kts
25-Nov-20 18:14 34.426094 -119.837070 178 24ft 0kts
25-Nov-20 18:15 34.426094 -119.837070 178 24ft 0kts
25-Nov-20 18:16 34.426094 -119.837070 178 24ft 0kts
25-Nov-20 18:17 34.426094 -119.837070 178 24ft 0kts
25-Nov-20 18:18 34.426094 -119.837070 178 24ft 0kts
25-Nov-20 18:19 34.426094 -119.837070 178 24ft 0kts
25-Nov-20 18:20 34.426094 -119.837070 178 24ft 0kts
25-Nov-20 18:21 34.426094 -119.837070 178 24ft 0kts
25-Nov-20 18:22 34.426094 -119.837070 178 24ft 0kts
25-Nov-20 18:23 34.426094 -119.837070 178 24ft 0kts
25-Nov-20 18:24 34.426094 -119.837070 178 24ft 0kts
25-Nov-20 18:25 34.426094 -119.837070 178 24ft 0kts
25-Nov-20 18:26 34.426094 -119.837070 178 24ft 0kts
25-Nov-20 18:27 34.426489 -119.837124 161 24ft 2kts
25-Nov-20 18:28 34.426728 -119.837386 88 24ft 0kts
25-Nov-20 18:29 34.426728 -119.837386 88 24ft 0kts
25-Nov-20 18:30 34.426751 -119.835669 85 24ft 9kts
25-Nov-20 18:31 34.427830 -119.834691 328 24ft 6kts
25-Nov-20 18:32 34.427638 -119.849705 269 36ft 155kts
25-Nov-20 18:34 34.426258 -119.900189 272 2777ft 140kts
25-Nov-20 18:35 34.388559 -119.934973 183 3518ft 257kts
25-Nov-20 18:36 34.319413 -119.909311 129 6385ft 287kts
25-Nov-20 18:37 34.262689 -119.836721 135 9275ft 305kts
25-Nov-20 18:38 34.204185 -119.755536 109 11200ft 351kts
25-Nov-20 18:39 34.197947 -119.640853 89 12939ft 382kts
25-Nov-20 18:40 34.195511 -119.515862 86 15084ft 398kts
25-Nov-20 18:41 34.201761 -119.379434 86 17096ft 416kts
25-Nov-20 18:42 34.206543 -119.248583 86 18768ft 431kts
25-Nov-20 18:43 34.212392 -119.101517 84 20481ft 445kts
25-Nov-20 18:44 34.240735 -118.953969 75 22033ft 457kts
25-Nov-20 18:45 34.267458 -118.818918 76 23290ft 468kts
25-Nov-20 18:46 34.298233 -118.664337 77 24633ft 478kts
25-Nov-20 18:47 34.329066 -118.506830 77 25874ft 487kts
25-Nov-20 18:48 34.360388 -118.346705 77 27044ft 493kts
25-Nov-20 18:49 34.391873 -118.184096 77 28106ft 500kts
25-Nov-20 18:49 34.418390 -118.046746 77 28918ft 505kts
25-Nov-20 18:51 34.485834 -117.863973 64 30008ft 511kts
25-Nov-20 18:52 34.545771 -117.707822 65 31118ft 509kts
25-Nov-20 18:52 34.596022 -117.578645 65 31979ft 508kts
25-Nov-20 18:54 34.665596 -117.397314 65 33014ft 508kts
25-Nov-20 18:54 34.715257 -117.267639 66 33106ft 508kts
25-Nov-20 18:56 34.784573 -117.085598 66 33099ft 509kts
25-Nov-20 18:56 34.834130 -116.954785 66 33081ft 509kts
25-Nov-20 18:57 34.893270 -116.798043 66 33056ft 509kts
25-Nov-20 18:58 34.972264 -116.656341 45 33055ft 511kts
25-Nov-20 18:59 35.069940 -116.529541 46 33050ft 513kts
25-Nov-20 19:00 35.166125 -116.400651 45 33047ft 514kts
25-Nov-20 19:01 35.263108 -116.271145 46 33047ft 516kts
25-Nov-20 19:02 35.360336 -116.140851 46 33047ft 518kts
25-Nov-20 19:03 35.457530 -116.009881 46 33045ft 520kts
25-Nov-20 19:04 35.554996 -115.878157 46 33051ft 521kts
25-Nov-20 19:05 35.652237 -115.746156 46 33054ft 522kts
25-Nov-20 19:06 35.749425 -115.613694 46 33052ft 511kts
25-Nov-20 19:07 35.844115 -115.484249 46 33063ft 509kts
25-Nov-20 19:08 35.937604 -115.355913 46 33067ft 509kts
25-Nov-20 19:09 36.032623 -115.224869 46 33068ft 511kts
25-Nov-20 19:10 36.133753 -115.100889 37 33061ft 512kts
25-Nov-20 19:11 36.241660 -114.985759 38 33052ft 512kts
25-Nov-20 19:12 36.349225 -114.868986 37 33042ft 514kts
25-Nov-20 19:13 36.457162 -114.751810 37 33044ft 515kts
25-Nov-20 19:14 36.565307 -114.634082 38 33049ft 516kts
25-Nov-20 19:15 36.673104 -114.516080 38 33060ft 517kts
25-Nov-20 19:16 36.789026 -114.412468 26 33073ft 511kts
25-Nov-20 19:17 36.909654 -114.318861 27 33081ft 513kts
25-Nov-20 19:18 37.030622 -114.223283 26 33093ft 514kts
25-Nov-20 19:19 37.152336 -114.126903 26 33095ft 517kts
25-Nov-20 19:20 37.273815 -114.030488 26 33092ft 519kts
25-Nov-20 19:21 37.395859 -113.933169 26 33094ft 520kts
25-Nov-20 19:22 37.518235 -113.835202 26 33093ft 521kts
25-Nov-20 19:23 37.640922 -113.736572 26 33092ft 523kts
25-Nov-20 19:24 37.763323 -113.637825 26 33083ft 522kts
25-Nov-20 19:25 37.885814 -113.538588 26 33079ft 523kts
25-Nov-20 19:26 38.001380 -113.424078 38 33080ft 530kts
25-Nov-20 19:27 38.111348 -113.297778 36 33075ft 535kts
25-Nov-20 19:28 38.222446 -113.171301 37 33068ft 536kts
25-Nov-20 19:29 38.333468 -113.044203 37 33063ft 537kts
25-Nov-20 19:30 38.456357 -112.942603 36 33057ft 537kts
25-Nov-20 19:31 38.545348 -112.787753 60 33107ft 545kts
25-Nov-20 19:32 38.618890 -112.618286 61 34090ft 544kts
25-Nov-20 19:33 38.691708 -112.449201 61 34990ft 541kts
25-Nov-20 19:34 38.764306 -112.280902 59 35068ft 540kts
25-Nov-20 19:35 38.879766 -112.177334 359 35076ft 497kts
25-Nov-20 19:36 39.016070 -112.156669 356 35103ft 495kts
25-Nov-20 19:37 39.152964 -112.132599 355 35088ft 501kts
25-Nov-20 19:38 39.293613 -112.109231 356 35071ft 516kts
25-Nov-20 19:39 39.436048 -112.084906 355 35071ft 518kts
25-Nov-20 19:40 39.580083 -112.060351 355 35084ft 522kts
25-Nov-20 19:41 39.723687 -112.035857 355 35110ft 521kts
25-Nov-20 19:42 39.867669 -112.011032 355 35129ft 521kts
25-Nov-20 19:43 40.011678 -111.986228 355 35130ft 521kts
25-Nov-20 19:44 40.155321 -111.961306 355 35132ft 521kts
25-Nov-20 19:45 40.296769 -111.909006 28 35082ft 565kts
25-Nov-20 19:46 40.407751 -111.760343 42 35101ft 577kts
25-Nov-20 19:47 40.520440 -111.610896 41 35104ft 576kts
25-Nov-20 19:48 40.631293 -111.458609 41 35097ft 575kts
25-Nov-20 19:49 40.742525 -111.307603 42 35077ft 574kts
25-Nov-20 19:50 40.853087 -111.155676 42 35065ft 574kts
25-Nov-20 19:51 40.963832 -111.002918 42 35016ft 574kts
25-Nov-20 19:52 41.074078 -110.850116 42 35024ft 575kts
25-Nov-20 19:53 41.184335 -110.696529 43 35037ft 575kts
25-Nov-20 19:54 41.294525 -110.542158 43 35014ft 577kts
25-Nov-20 19:55 41.417986 -110.414090 9 34865ft 543kts
25-Nov-20 19:56 41.561911 -110.377940 358 31450ft 534kts
25-Nov-20 19:57 41.707953 -110.337809 1 27918ft 513kts
25-Nov-20 19:58 41.846034 -110.303866 1 26481ft 525kts
25-Nov-20 19:59 41.990800 -110.264474 2 25705ft 529kts
25-Nov-20 20:00 42.136168 -110.227067 2 25021ft 533kts
25-Nov-20 20:01 42.281517 -110.188388 3 24335ft 531kts
25-Nov-20 20:02 42.425608 -110.150165 3 24032ft 524kts
25-Nov-20 20:03 42.568166 -110.116842 351 24015ft 508kts
25-Nov-20 20:04 42.694057 -110.176506 326 24033ft 475kts
25-Nov-20 20:05 42.815746 -110.247942 329 24038ft 476kts
25-Nov-20 20:06 42.936801 -110.320231 329 23907ft 469kts
25-Nov-20 20:07 43.053616 -110.389515 330 20596ft 450kts
25-Nov-20 20:08 43.163839 -110.455447 332 17901ft 420kts
25-Nov-20 20:09 43.270894 -110.509323 352 15534ft 401kts
25-Nov-20 20:10 43.374514 -110.483643 11 14990ft 350kts
25-Nov-20 20:11 43.450610 -110.455593 11 14986ft 288kts
25-Nov-20 20:12 43.523743 -110.427699 11 15012ft 276kts
25-Nov-20 20:13 43.605658 -110.397536 11 15010ft 315kts
25-Nov-20 20:14 43.690680 -110.366679 11 14999ft 315kts
25-Nov-20 20:15 43.775477 -110.339243 357 14982ft 309kts
25-Nov-20 20:16 43.836230 -110.401818 282 13981ft 283kts
25-Nov-20 20:17 43.845558 -110.509471 275 12778ft 281kts
25-Nov-20 20:18 43.825018 -110.609464 239 10751ft 282kts
25-Nov-20 20:19 43.760179 -110.663309 200 9513ft 279kts
25-Nov-20 20:20 43.689171 -110.697782 199 8001ft 245kts
25-Nov-20 20:21 43.637380 -110.723298 197 6983ft 158kts
25-Nov-20 20:22 43.603276 -110.739757 198 6465ft 50kts
25-Nov-20 20:23 43.599554 -110.740019 47 6465ft 0kts
25-Nov-20 20:24 43.600763 -110.739332 21 6465ft 13kts
25-Nov-20 20:25 43.602335 -110.738032 110 6465ft 0kts
25-Nov-20 20:26 43.602251 -110.737690 109 6465ft 0kts
25-Nov-20 20:27 43.602251 -110.737690 109 6465ft 0kts
25-Nov-20 20:28 43.602251 -110.737690 109 6465ft 0kts
25-Nov-20 20:29 43.602251 -110.737690 109 6465ft 0kts
25-Nov-20 20:30 43.602251 -110.737690 109 6465ft 0kts
25-Nov-20 20:31 43.602251 -110.737690 109 6465ft 0kts
25-Nov-20 20:32 43.602251 -110.737690 109 6465ft 0kts

Navigation Log

Ident Type
Flight plan parsing failed, navigation log unavailable